Board Tree, Kentucky
Current Conditions -  °F | °C
As of 7:35 PM on Thursday 18 Dec 2014 (Local Time) from KPBX Reporting Station
Overcast Overcast  
Wind Chill: 32°   Ceiling: 7000
Heat Index: 32°   Visibility: 10mi
Dew Point: 25°   Wind: 3mph
Humidity: 76%   Direction: 360°N
Pressure: 30.16"   Gusts: NA
Location:  37.5459°N, 82.1376°W
Report Text: KPBX 190035Z AUTO 36003KT 10SM BKN070 OVC080 00/M04 A3016 RMK AO2 T10021040
Loading
Personal Weather Stations






























Interactive Weather Map New forecast layout! Learn more

10-Day Weather Forecast

Advertisements
Track Severe Weather on mobile